Time;durP1;ratioP1;P1;durP2;ratioP2;P2;SDS_P1;SDS_P2;PMS_P1;PMS_P2;Temp;Humidity;BMP_temperature;BMP_pressure;BME280_temperature;BME280_humidity;BME280_pressure;Samples;Min_cycle;Max_cycle;Signal;HPM_P1;HPM_P2
2023/02/09 00:01:04;;;;;;;15.67;6.40;;;;;;;;;;5097745;27;20039;-68
2023/02/09 00:03:29;;;;;;;15.40;7.03;;;;;;;;;;5098002;28;20103;-68
2023/02/09 00:05:57;;;;;;;10.73;6.47;;;;;;;;;;5080515;27;20043;-68
2023/02/09 00:08:23;;;;;;;11.53;6.33;;;;;;;;;;5097207;28;20042;-68
2023/02/09 00:10:48;;;;;;;11.63;6.53;;;;;;;;;;5080398;28;20039;-69
2023/02/09 00:13:23;;;;;;;11.00;6.70;;;;;;;;;;5080474;27;20042;-69
2023/02/09 00:15:49;;;;;;;11.50;6.33;;;;;;;;;;5080180;28;20397;-68
2023/02/09 00:18:15;;;;;;;13.80;6.60;;;;;;;;;;5080235;28;20035;-69
2023/02/09 00:20:40;;;;;;;11.77;6.10;;;;;;;;;;5096945;28;20043;-68
2023/02/09 00:23:06;;;;;;;10.17;6.50;;;;;;;;;;5080154;28;20035;-69
2023/02/09 00:25:31;;;;;;;10.53;6.43;;;;;;;;;;5080186;28;20054;-68
2023/02/09 00:27:57;;;;;;;15.17;6.17;;;;;;;;;;5080525;28;20027;-69
2023/02/09 00:30:23;;;;;;;14.70;7.33;;;;;;;;;;5096864;28;20103;-69
2023/02/09 00:32:48;;;;;;;10.53;6.57;;;;;;;;;;5097292;28;20127;-68
2023/02/09 00:35:14;;;;;;;11.50;6.77;;;;;;;;;;5080368;28;20035;-69
2023/02/09 00:37:40;;;;;;;10.53;6.40;;;;;;;;;;5080365;28;20456;-69
2023/02/09 00:40:06;;;;;;;11.73;6.93;;;;;;;;;;5079936;28;20565;-69
2023/02/09 00:42:32;;;;;;;10.97;6.60;;;;;;;;;;5080034;28;20041;-68
2023/02/09 00:44:58;;;;;;;10.03;6.03;;;;;;;;;;5080247;28;20129;-69
2023/02/09 00:47:24;;;;;;;12.23;6.63;;;;;;;;;;5096818;28;20034;-69
2023/02/09 00:49:50;;;;;;;11.07;6.57;;;;;;;;;;5113607;28;20039;-69
2023/02/09 00:52:15;;;;;;;12.47;7.20;;;;;;;;;;5079930;28;20031;-69
2023/02/09 00:54:41;;;;;;;14.03;6.70;;;;;;;;;;5097521;27;20031;-69
2023/02/09 00:57:06;;;;;;;13.17;7.07;;;;;;;;;;5100529;27;20121;-69
2023/02/09 00:59:33;;;;;;;12.20;7.00;;;;;;;;;;5083703;27;20134;-69
2023/02/09 01:01:59;;;;;;;12.03;7.67;;;;;;;;;;5117871;27;20512;-69
2023/02/09 01:04:24;;;;;;;13.23;7.30;;;;;;;;;;5134769;27;20135;-69
2023/02/09 01:06:50;;;;;;;12.67;7.07;;;;;;;;;;5083532;27;20518;-68
2023/02/09 01:09:16;;;;;;;14.70;7.00;;;;;;;;;;5083306;27;20039;-68
2023/02/09 01:11:41;;;;;;;12.53;7.43;;;;;;;;;;5117387;27;20031;-68
2023/02/09 01:14:08;;;;;;;15.17;7.53;;;;;;;;;;5083488;27;20030;-68
2023/02/09 01:16:34;;;;;;;16.00;7.40;;;;;;;;;;5083327;27;20477;-68
2023/02/09 01:19:00;;;;;;;11.83;6.97;;;;;;;;;;5100338;27;20046;-68
2023/02/09 01:21:29;;;;;;;13.40;7.03;;;;;;;;;;5117832;27;20035;-68
2023/02/09 01:23:55;;;;;;;15.43;6.50;;;;;;;;;;5135047;27;20060;-68
2023/02/09 01:26:20;;;;;;;11.93;7.37;;;;;;;;;;5100352;27;20062;-69
2023/02/09 01:28:50;;;;;;;13.03;7.17;;;;;;;;;;5083127;27;20045;-67
2023/02/09 01:31:26;;;;;;;14.00;7.30;;;;;;;;;;5099997;27;20035;-68
2023/02/09 01:33:53;;;;;;;12.00;6.83;;;;;;;;;;5100156;27;20050;-68
2023/02/09 01:36:19;;;;;;;12.97;8.17;;;;;;;;;;5135201;27;20106;-68
2023/02/09 01:38:46;;;;;;;11.03;7.03;;;;;;;;;;5117303;27;20110;-68
2023/02/09 01:41:11;;;;;;;12.93;7.40;;;;;;;;;;5083006;27;20472;-68
2023/02/09 01:43:49;;;;;;;13.53;7.60;;;;;;;;;;5082884;27;20035;-68
2023/02/09 01:46:15;;;;;;;13.23;7.27;;;;;;;;;;5099700;27;20042;-68
2023/02/09 01:48:40;;;;;;;14.57;7.77;;;;;;;;;;5082762;27;20031;-69
2023/02/09 01:51:06;;;;;;;14.03;7.77;;;;;;;;;;5082873;27;20062;-70
2023/02/09 01:53:32;;;;;;;12.27;7.60;;;;;;;;;;5099554;27;20354;-69
2023/02/09 01:56:03;;;;;;;16.73;8.20;;;;;;;;;;5099830;27;20094;-68
2023/02/09 01:58:28;;;;;;;;;;;;;;;;;;5083463;27;20081;-68
2023/02/09 02:00:54;;;;;;;11.80;7.10;;;;;;;;;;5116278;27;20361;-68
2023/02/09 02:03:21;;;;;;;14.27;8.10;;;;;;;;;;5100340;27;20393;-69
2023/02/09 02:05:49;;;;;;;13.57;7.50;;;;;;;;;;5134410;27;20457;-69
2023/02/09 02:08:15;;;;;;;16.00;7.27;;;;;;;;;;5099935;27;20035;-69
2023/02/09 02:10:40;;;;;;;11.87;7.00;;;;;;;;;;5096521;28;20047;-69
2023/02/09 02:13:06;;;;;;;15.40;8.07;;;;;;;;;;5079798;28;20050;-69
2023/02/09 02:15:41;;;;;;;14.47;8.40;;;;;;;;;;5113554;28;20095;-69
2023/02/09 02:18:30;;;;;;;21.23;8.67;;;;;;;;;;5096664;28;20042;-69
2023/02/09 02:21:14;;;;;;;17.67;8.17;;;;;;;;;;5090610;28;20050;-69
2023/02/09 02:23:55;;;;;;;14.57;7.57;;;;;;;;;;5062968;28;20050;-68
2023/02/09 02:26:20;;;;;;;15.70;8.57;;;;;;;;;;5062892;28;20047;-68
2023/02/09 02:29:04;;;;;;;11.43;7.57;;;;;;;;;;5079718;28;20048;-69
2023/02/09 02:31:48;;;;;;;16.70;8.43;;;;;;;;;;5081741;27;20121;-69
2023/02/09 02:34:26;;;;;;;16.33;8.77;;;;;;;;;;5096851;27;20038;-68
2023/02/09 02:36:55;;;;;;;16.60;9.00;;;;;;;;;;5096345;27;20194;-69
2023/02/09 02:39:21;;;;;;;21.47;9.50;;;;;;;;;;5098432;27;20103;-67
2023/02/09 02:45:05;;;;;;;22.20;9.80;;;;;;;;;;5098874;27;20050;-69
2023/02/09 02:47:30;;;;;;;;;;;;;;;;;;5117101;27;20038;-70
2023/02/09 02:49:59;;;;;;;16.43;9.50;;;;;;;;;;5116414;27;19972;-70
2023/02/09 02:52:25;;;;;;;21.77;9.83;;;;;;;;;;5099549;27;20084;-70
2023/02/09 02:54:56;;;;;;;21.63;10.13;;;;;;;;;;5116384;27;20043;-70
2023/02/09 02:57:24;;;;;;;19.33;10.40;;;;;;;;;;5116464;27;20031;-70
2023/02/09 02:59:58;;;;;;;25.17;12.03;;;;;;;;;;5116314;27;20039;-72
2023/02/09 03:02:30;;;;;;;24.43;11.27;;;;;;;;;;5099395;27;20039;-73
2023/02/09 03:04:57;;;;;;;25.33;12.67;;;;;;;;;;5116039;27;20038;-72
2023/02/09 03:07:22;;;;;;;19.57;10.93;;;;;;;;;;5116247;27;20027;-74
2023/02/09 03:09:52;;;;;;;22.60;12.40;;;;;;;;;;5099087;27;20122;-73
2023/02/09 03:12:30;;;;;;;22.48;11.20;;;;;;;;;;5099097;27;20146;-73
2023/02/09 03:15:10;;;;;;;27.23;10.87;;;;;;;;;;5116247;27;20035;-73
2023/02/09 03:17:39;;;;;;;23.40;10.20;;;;;;;;;;5081567;27;20074;-70
2023/02/09 03:20:09;;;;;;;22.17;10.53;;;;;;;;;;5081876;27;20456;-71
2023/02/09 03:22:40;;;;;;;24.17;10.77;;;;;;;;;;5114906;27;20110;-69
2023/02/09 03:25:08;;;;;;;21.70;11.02;;;;;;;;;;5096424;27;20043;-71
2023/02/09 03:27:39;;;;;;;16.57;9.73;;;;;;;;;;5109303;27;20126;-70
2023/02/09 03:30:07;;;;;;;22.25;10.15;;;;;;;;;;5097034;27;20053;-70
2023/02/09 03:32:36;;;;;;;18.83;9.33;;;;;;;;;;5094657;27;20051;-73
2023/02/09 03:35:02;;;;;;;18.77;9.63;;;;;;;;;;5097931;27;20464;-70
2023/02/09 03:37:29;;;;;;;22.87;10.17;;;;;;;;;;5098245;27;20035;-70
2023/02/09 03:39:56;;;;;;;18.90;9.90;;;;;;;;;;5098011;27;20039;-73
2023/02/09 03:42:21;;;;;;;16.20;9.07;;;;;;;;;;5096720;27;20484;-71
2023/02/09 03:44:47;;;;;;;21.70;10.23;;;;;;;;;;5105018;27;20419;-66
2023/02/09 03:47:13;;;;;;;19.30;9.57;;;;;;;;;;5096975;27;20069;-68
2023/02/09 03:49:40;;;;;;;21.10;9.40;;;;;;;;;;5131964;27;20034;-65
2023/02/09 03:52:06;;;;;;;20.60;10.97;;;;;;;;;;5114692;28;20477;-67
2023/02/09 03:54:32;;;;;;;19.00;9.93;;;;;;;;;;5098238;27;20114;-67
2023/02/09 03:56:59;;;;;;;18.17;9.67;;;;;;;;;;5097259;27;20580;-68
2023/02/09 03:59:25;;;;;;;21.00;9.77;;;;;;;;;;5130316;27;20824;-68
2023/02/09 04:01:51;;;;;;;15.60;9.43;;;;;;;;;;5095461;28;20042;-67
2023/02/09 04:04:17;;;;;;;19.77;9.73;;;;;;;;;;5130532;27;20047;-67
2023/02/09 04:06:43;;;;;;;25.90;11.07;;;;;;;;;;5130737;27;20038;-68
2023/02/09 04:09:09;;;;;;;25.73;11.00;;;;;;;;;;5094904;27;20031;-68
2023/02/09 04:11:35;;;;;;;21.60;9.87;;;;;;;;;;5098027;28;20038;-68
2023/02/09 04:14:00;;;;;;;15.93;9.40;;;;;;;;;;5098200;27;20035;-68
2023/02/09 04:16:26;;;;;;;24.13;10.37;;;;;;;;;;5077773;28;20150;-69
2023/02/09 04:18:52;;;;;;;22.20;10.10;;;;;;;;;;5094455;28;20066;-68
2023/02/09 04:21:17;;;;;;;17.47;10.07;;;;;;;;;;5094399;28;20036;-69
2023/02/09 04:23:44;;;;;;;23.13;10.40;;;;;;;;;;5111372;28;20071;-68
2023/02/09 04:26:10;;;;;;;26.63;11.63;;;;;;;;;;5111242;28;20066;-68
2023/02/09 04:28:35;;;;;;;28.53;12.83;;;;;;;;;;5094805;28;20416;-69
2023/02/09 04:31:01;;;;;;;29.07;13.60;;;;;;;;;;5097772;28;20122;-68
2023/02/09 04:33:27;;;;;;;28.13;12.87;;;;;;;;;;5098406;28;20031;-69
2023/02/09 04:35:52;;;;;;;25.90;12.93;;;;;;;;;;5132571;27;20069;-69
2023/02/09 04:38:19;;;;;;;25.57;12.13;;;;;;;;;;5098320;28;20076;-69
2023/02/09 04:40:45;;;;;;;29.30;12.27;;;;;;;;;;5081595;28;20401;-69
2023/02/09 04:43:11;;;;;;;24.30;11.30;;;;;;;;;;5115367;28;20031;-69
2023/02/09 04:45:37;;;;;;;22.60;11.33;;;;;;;;;;5098513;28;20031;-68
2023/02/09 04:48:03;;;;;;;27.73;11.50;;;;;;;;;;5115711;28;20066;-69
2023/02/09 04:50:29;;;;;;;20.87;11.10;;;;;;;;;;5081105;28;20072;-69
2023/02/09 04:52:54;;;;;;;23.87;11.47;;;;;;;;;;5039195;28;20045;-69
2023/02/09 04:55:20;;;;;;;21.03;11.17;;;;;;;;;;5039100;28;20127;-69
2023/02/09 05:00:30;;;;;;;22.97;11.70;;;;;;;;;;5072966;28;20037;-69
2023/02/09 05:02:56;;;;;;;23.47;11.70;;;;;;;;;;5040933;28;20474;-69
2023/02/09 05:05:21;;;;;;;27.07;11.80;;;;;;;;;;5041272;28;20112;-69
2023/02/09 05:07:47;;;;;;;20.90;11.60;;;;;;;;;;5041085;28;20036;-69
2023/02/09 05:10:13;;;;;;;21.47;11.23;;;;;;;;;;5041025;28;20544;-69
2023/02/09 05:12:38;;;;;;;23.43;12.50;;;;;;;;;;5058027;28;20178;-69
2023/02/09 05:15:05;;;;;;;30.27;12.80;;;;;;;;;;5041329;28;20045;-69
2023/02/09 05:17:31;;;;;;;26.07;12.63;;;;;;;;;;5091573;28;20158;-69
2023/02/09 05:19:57;;;;;;;28.37;13.37;;;;;;;;;;5060807;28;20050;-69
2023/02/09 05:22:23;;;;;;;30.60;14.30;;;;;;;;;;5077611;28;20040;-69
2023/02/09 05:24:48;;;;;;;31.43;13.63;;;;;;;;;;5077568;28;20109;-69
2023/02/09 05:27:16;;;;;;;28.33;14.37;;;;;;;;;;5061076;28;20043;-69
2023/02/09 05:29:42;;;;;;;33.70;15.20;;;;;;;;;;5060558;28;20466;-69
2023/02/09 05:32:07;;;;;;;33.13;15.97;;;;;;;;;;5060983;28;20092;-69
2023/02/09 05:34:33;;;;;;;40.27;16.63;;;;;;;;;;5060668;28;20093;-69
2023/02/09 05:36:59;;;;;;;40.97;17.27;;;;;;;;;;5060523;28;20043;-69
2023/02/09 05:39:24;;;;;;;44.00;18.23;;;;;;;;;;5060455;28;20134;-69
2023/02/09 05:44:36;;;;;;;39.53;17.43;;;;;;;;;;5094092;28;20036;-69
2023/02/09 05:47:01;;;;;;;38.30;16.57;;;;;;;;;;5077251;28;20032;-69
2023/02/09 05:49:27;;;;;;;35.03;16.60;;;;;;;;;;5060238;28;20036;-69
2023/02/09 05:51:52;;;;;;;43.67;18.23;;;;;;;;;;5060356;28;20096;-69
2023/02/09 05:54:18;;;;;;;40.60;15.97;;;;;;;;;;5060333;28;20039;-70
2023/02/09 05:56:44;;;;;;;34.23;16.63;;;;;;;;;;5060293;28;20470;-69
2023/02/09 05:59:09;;;;;;;37.53;15.97;;;;;;;;;;5094040;28;20048;-69
2023/02/09 06:01:35;;;;;;;33.30;14.87;;;;;;;;;;5076691;28;20385;-69
2023/02/09 06:04:01;;;;;;;30.53;14.17;;;;;;;;;;5060221;28;20493;-69
2023/02/09 06:06:26;;;;;;;30.77;13.93;;;;;;;;;;5060240;28;20500;-69
2023/02/09 06:08:53;;;;;;;29.37;13.40;;;;;;;;;;5059991;28;20458;-69
2023/02/09 06:11:19;;;;;;;30.73;14.13;;;;;;;;;;5060102;28;20181;-69
2023/02/09 06:13:45;;;;;;;32.60;13.77;;;;;;;;;;5043415;28;20073;-68
2023/02/09 06:16:10;;;;;;;30.63;14.00;;;;;;;;;;5060046;28;20056;-69
2023/02/09 06:18:37;;;;;;;35.03;14.73;;;;;;;;;;5059780;28;20548;-69
2023/02/09 06:21:03;;;;;;;26.37;13.60;;;;;;;;;;5059731;28;20036;-69
2023/02/09 06:23:29;;;;;;;33.33;13.73;;;;;;;;;;5059786;28;20071;-69
2023/02/09 06:25:56;;;;;;;32.20;13.73;;;;;;;;;;5059811;28;20066;-69
2023/02/09 06:28:24;;;;;;;25.47;12.57;;;;;;;;;;5076237;28;20465;-69
2023/02/09 06:30:51;;;;;;;28.30;13.13;;;;;;;;;;5059797;28;20040;-69
2023/02/09 06:33:17;;;;;;;32.43;14.10;;;;;;;;;;5059802;28;20032;-69
2023/02/09 06:35:43;;;;;;;29.30;13.70;;;;;;;;;;5060079;28;20039;-69
2023/02/09 06:38:09;;;;;;;30.60;12.70;;;;;;;;;;5060251;28;20072;-69
2023/02/09 06:40:35;;;;;;;26.10;12.20;;;;;;;;;;5059505;28;20139;-69
2023/02/09 06:43:01;;;;;;;26.40;12.80;;;;;;;;;;5075975;28;20028;-69
2023/02/09 06:45:27;;;;;;;29.37;13.53;;;;;;;;;;5076087;28;20028;-69
2023/02/09 06:47:52;;;;;;;23.50;12.97;;;;;;;;;;5059187;28;20027;-69
2023/02/09 06:50:18;;;;;;;23.80;12.67;;;;;;;;;;5059159;28;20046;-69
2023/02/09 06:52:44;;;;;;;28.50;12.57;;;;;;;;;;5059152;28;20093;-69
2023/02/09 06:55:10;;;;;;;22.50;12.20;;;;;;;;;;5059103;28;20028;-69
2023/02/09 06:57:35;;;;;;;21.10;11.57;;;;;;;;;;5059085;28;20402;-69
2023/02/09 07:00:01;;;;;;;25.37;12.43;;;;;;;;;;5059003;28;20051;-69
2023/02/09 07:02:30;;;;;;;28.27;12.30;;;;;;;;;;5059809;28;20044;-69
2023/02/09 07:04:56;;;;;;;23.50;12.43;;;;;;;;;;5059153;28;20040;-69
2023/02/09 07:07:22;;;;;;;24.10;12.57;;;;;;;;;;5059052;28;20028;-69
2023/02/09 07:09:50;;;;;;;26.40;11.43;;;;;;;;;;5059235;28;20040;-69
2023/02/09 07:12:16;;;;;;;31.53;12.63;;;;;;;;;;5058836;28;20046;-69
2023/02/09 07:14:41;;;;;;;29.67;11.77;;;;;;;;;;5059302;28;20088;-69
2023/02/09 07:17:07;;;;;;;26.50;12.67;;;;;;;;;;5058613;28;20127;-69
2023/02/09 07:19:33;;;;;;;23.23;11.83;;;;;;;;;;5058779;28;20040;-69
2023/02/09 07:21:58;;;;;;;24.37;11.83;;;;;;;;;;5058707;28;20489;-69
2023/02/09 07:24:24;;;;;;;25.40;12.40;;;;;;;;;;5058760;28;20036;-69
2023/02/09 07:26:50;;;;;;;24.17;11.13;;;;;;;;;;5058485;28;20032;-69
2023/02/09 07:29:15;;;;;;;22.43;11.83;;;;;;;;;;5056777;28;20036;-69
2023/02/09 07:31:41;;;;;;;25.40;11.83;;;;;;;;;;5089261;28;20480;-69
2023/02/09 07:34:07;;;;;;;25.90;12.50;;;;;;;;;;5094145;28;20251;-69
2023/02/09 07:36:33;;;;;;;25.77;11.70;;;;;;;;;;5094555;28;20042;-69
2023/02/09 07:38:58;;;;;;;23.53;11.80;;;;;;;;;;5094184;28;20027;-69
2023/02/09 07:41:24;;;;;;;22.93;11.43;;;;;;;;;;5094108;28;20466;-69
2023/02/09 07:43:51;;;;;;;25.60;12.13;;;;;;;;;;5111289;28;20039;-70
2023/02/09 07:46:18;;;;;;;24.43;11.83;;;;;;;;;;5111355;28;20063;-71
2023/02/09 07:48:44;;;;;;;26.23;12.10;;;;;;;;;;5111483;28;20027;-70
2023/02/09 07:51:14;;;;;;;30.83;12.70;;;;;;;;;;5093350;28;20134;-69
2023/02/09 07:53:40;;;;;;;27.60;12.23;;;;;;;;;;5093721;28;20088;-69
2023/02/09 07:56:05;;;;;;;24.80;12.10;;;;;;;;;;5093978;28;20035;-69
2023/02/09 07:58:31;;;;;;;28.67;12.40;;;;;;;;;;5094072;28;20039;-69
2023/02/09 08:01:02;;;;;;;28.40;13.43;;;;;;;;;;5093795;28;20043;-69
2023/02/09 08:03:28;;;;;;;;;;;;;;;;;;5094570;28;20028;-67
2023/02/09 08:06:01;;;;;;;32.17;13.43;;;;;;;;;;5093479;28;19961;-66
2023/02/09 08:08:27;;;;;;;27.57;12.27;;;;;;;;;;5093944;28;20073;-66
2023/02/09 08:10:57;;;;;;;32.23;12.30;;;;;;;;;;5093954;28;20028;-67
2023/02/09 08:13:24;;;;;;;23.67;12.38;;;;;;;;;;5110232;28;20596;-68
2023/02/09 08:15:55;;;;;;;25.83;11.80;;;;;;;;;;5096956;28;20616;-69
2023/02/09 08:18:23;;;;;;;26.85;12.68;;;;;;;;;;5080322;28;20031;-69
2023/02/09 08:20:49;;;;;;;26.60;12.83;;;;;;;;;;5097134;28;20138;-67
2023/02/09 08:23:17;;;;;;;22.80;12.20;;;;;;;;;;5113978;28;20484;-66
2023/02/09 08:25:43;;;;;;;25.57;12.73;;;;;;;;;;5097395;28;20538;-67
2023/02/09 08:28:08;;;;;;;26.87;11.40;;;;;;;;;;5097490;28;20035;-67
2023/02/09 08:30:34;;;;;;;22.67;11.00;;;;;;;;;;5096974;28;20038;-66
2023/02/09 08:33:00;;;;;;;25.80;11.20;;;;;;;;;;5096655;28;20083;-66
2023/02/09 08:35:26;;;;;;;24.50;11.07;;;;;;;;;;5097288;28;20027;-66
2023/02/09 08:37:51;;;;;;;24.30;11.13;;;;;;;;;;5096874;28;20138;-65
2023/02/09 08:40:17;;;;;;;19.23;10.27;;;;;;;;;;5097451;28;20043;-65
2023/02/09 08:42:43;;;;;;;20.80;10.47;;;;;;;;;;5097105;28;20035;-66
2023/02/09 08:45:09;;;;;;;20.67;10.53;;;;;;;;;;5096793;28;20038;-66
2023/02/09 08:47:34;;;;;;;24.23;11.60;;;;;;;;;;5096841;28;20054;-65
2023/02/09 08:50:00;;;;;;;24.57;12.00;;;;;;;;;;5096783;28;20465;-67
2023/02/09 08:52:26;;;;;;;26.20;11.97;;;;;;;;;;5096968;28;20194;-67
2023/02/09 08:54:51;;;;;;;27.43;12.20;;;;;;;;;;5079954;28;20171;-66
2023/02/09 08:57:17;;;;;;;27.10;12.20;;;;;;;;;;5079918;28;20067;-67
2023/02/09 08:59:43;;;;;;;26.20;12.10;;;;;;;;;;5097061;28;20062;-68
2023/02/09 09:02:08;;;;;;;27.17;12.13;;;;;;;;;;5096822;28;20042;-66
2023/02/09 09:04:35;;;;;;;23.83;11.23;;;;;;;;;;5113598;28;20027;-67
2023/02/09 09:07:00;;;;;;;23.10;10.77;;;;;;;;;;5096483;28;20495;-67
2023/02/09 09:09:26;;;;;;;24.53;11.37;;;;;;;;;;5096502;28;20456;-68
2023/02/09 09:11:52;;;;;;;24.53;11.20;;;;;;;;;;5096072;28;20035;-68
2023/02/09 09:14:17;;;;;;;22.93;11.97;;;;;;;;;;5096871;28;20118;-69
2023/02/09 09:16:43;;;;;;;26.13;12.47;;;;;;;;;;5097049;27;20059;-69
2023/02/09 09:19:08;;;;;;;25.63;12.13;;;;;;;;;;5100154;27;20151;-70
2023/02/09 09:21:34;;;;;;;22.03;10.73;;;;;;;;;;5099817;27;20493;-69
2023/02/09 09:24:00;;;;;;;21.30;11.10;;;;;;;;;;5086462;27;20039;-72
2023/02/09 09:26:25;;;;;;;22.93;10.87;;;;;;;;;;5104865;27;20042;-69
2023/02/09 09:28:51;;;;;;;21.67;10.53;;;;;;;;;;5083196;27;20042;-69
2023/02/09 09:31:17;;;;;;;21.33;10.80;;;;;;;;;;5100161;27;20130;-70
2023/02/09 09:33:43;;;;;;;21.90;11.47;;;;;;;;;;5099609;27;20138;-69
2023/02/09 09:36:09;;;;;;;24.23;10.80;;;;;;;;;;5099809;27;20073;-68
2023/02/09 09:38:35;;;;;;;24.57;11.87;;;;;;;;;;5134216;27;20035;-68
2023/02/09 09:41:02;;;;;;;21.33;11.00;;;;;;;;;;5099711;27;20043;-67
2023/02/09 09:43:35;;;;;;;21.33;10.67;;;;;;;;;;5098951;27;20092;-67
2023/02/09 09:46:01;;;;;;;19.03;10.63;;;;;;;;;;5098848;27;20038;-66
2023/02/09 09:48:47;;;;;;;20.63;10.40;;;;;;;;;;5099495;27;20095;-68
2023/02/09 09:51:42;;;;;;;18.07;10.00;;;;;;;;;;5081089;27;20053;-67
2023/02/09 09:54:12;;;;;;;20.70;10.33;;;;;;;;;;5086398;27;20122;-68
2023/02/09 09:56:40;;;;;;;24.05;10.65;;;;;;;;;;5099470;27;20039;-67
2023/02/09 09:59:16;;;;;;;21.00;10.27;;;;;;;;;;5099565;27;20118;-67
2023/02/09 10:01:41;;;;;;;21.40;10.43;;;;;;;;;;5099184;27;20125;-66
2023/02/09 10:04:13;;;;;;;18.57;10.63;;;;;;;;;;5099305;27;20126;-66
2023/02/09 10:06:40;;;;;;;23.97;11.97;;;;;;;;;;5116690;27;20861;-65
2023/02/09 10:09:15;;;;;;;27.17;12.07;;;;;;;;;;5107931;27;20042;-66
2023/02/09 10:11:44;;;;;;;22.73;11.80;;;;;;;;;;5080354;27;20039;-66
2023/02/09 10:14:09;;;;;;;21.07;10.47;;;;;;;;;;5097783;27;20027;-66
2023/02/09 10:16:36;;;;;;;23.23;11.23;;;;;;;;;;5097532;27;20050;-65
2023/02/09 10:19:03;;;;;;;20.47;10.60;;;;;;;;;;5095760;27;20024;-64
2023/02/09 10:21:31;;;;;;;21.97;10.77;;;;;;;;;;5114834;27;20128;-67
2023/02/09 10:24:00;;;;;;;20.90;11.40;;;;;;;;;;5112091;27;20035;-66
2023/02/09 10:26:30;;;;;;;22.03;10.60;;;;;;;;;;5080845;27;20039;-66
2023/02/09 10:28:57;;;;;;;20.67;9.70;;;;;;;;;;5096871;27;20027;-65
2023/02/09 10:31:36;;;;;;;18.70;9.73;;;;;;;;;;5097934;27;20031;-65
2023/02/09 10:34:12;;;;;;;20.20;9.87;;;;;;;;;;5115172;27;20131;-66
2023/02/09 10:36:44;;;;;;;19.20;9.60;;;;;;;;;;5114826;27;20041;-66
2023/02/09 10:39:10;;;;;;;22.63;9.50;;;;;;;;;;5098031;27;20373;-66
2023/02/09 10:41:36;;;;;;;19.43;9.60;;;;;;;;;;5098667;27;20035;-66
2023/02/09 10:44:07;;;;;;;16.87;8.53;;;;;;;;;;5098387;27;20043;-67
2023/02/09 10:46:33;;;;;;;19.87;10.50;;;;;;;;;;5081647;27;20064;-65
2023/02/09 10:48:59;;;;;;;17.93;9.90;;;;;;;;;;5115256;27;20057;-66
2023/02/09 10:51:30;;;;;;;15.13;8.50;;;;;;;;;;5114626;27;20047;-66
2023/02/09 10:53:58;;;;;;;17.00;9.27;;;;;;;;;;5114654;27;20146;-66
2023/02/09 10:56:25;;;;;;;21.53;9.63;;;;;;;;;;5098042;27;20035;-65
2023/02/09 10:59:01;;;;;;;18.10;9.60;;;;;;;;;;5098019;27;20045;-67
2023/02/09 11:01:31;;;;;;;15.67;9.57;;;;;;;;;;5098359;28;20036;-66
2023/02/09 11:04:02;;;;;;;18.02;10.07;;;;;;;;;;5077815;28;20199;-66
2023/02/09 11:06:31;;;;;;;21.20;9.52;;;;;;;;;;5077687;28;20373;-65
2023/02/09 11:09:00;;;;;;;17.77;9.10;;;;;;;;;;5077572;28;20093;-66
2023/02/09 11:11:44;;;;;;;14.97;8.30;;;;;;;;;;5076882;28;20130;-67
2023/02/09 11:14:11;;;;;;;20.10;8.87;;;;;;;;;;5094380;28;20449;-66
2023/02/09 11:16:54;;;;;;;15.30;8.30;;;;;;;;;;5094085;28;20054;-67
2023/02/09 11:19:24;;;;;;;16.80;8.93;;;;;;;;;;5077211;28;20040;-70
2023/02/09 11:21:50;;;;;;;12.03;7.87;;;;;;;;;;5094077;28;20042;-72
2023/02/09 11:24:34;;;;;;;14.57;7.87;;;;;;;;;;5077721;28;20040;-66
2023/02/09 11:27:05;;;;;;;13.57;8.40;;;;;;;;;;5061007;28;20202;-66
2023/02/09 11:29:33;;;;;;;16.38;8.70;;;;;;;;;;5077205;28;20035;-66
2023/02/09 11:32:07;;;;;;;16.73;8.80;;;;;;;;;;5077356;28;20040;-66
2023/02/09 11:34:51;;;;;;;17.07;8.13;;;;;;;;;;5093834;28;20043;-67
2023/02/09 11:37:28;;;;;;;22.00;8.30;;;;;;;;;;5060591;28;20075;-66
2023/02/09 11:39:57;;;;;;;15.90;8.83;;;;;;;;;;5075973;28;20096;-67
2023/02/09 11:42:45;;;;;;;15.87;8.63;;;;;;;;;;5076807;28;20040;-67
2023/02/09 11:45:30;;;;;;;14.23;7.63;;;;;;;;;;5076839;28;20039;-67
2023/02/09 11:47:58;;;;;;;18.07;7.60;;;;;;;;;;5060193;28;20042;-67
2023/02/09 11:50:27;;;;;;;16.83;8.00;;;;;;;;;;5076735;28;20035;-66
2023/02/09 11:53:00;;;;;;;16.83;7.87;;;;;;;;;;5091728;28;20032;-66
2023/02/09 11:55:28;;;;;;;14.57;7.87;;;;;;;;;;5110524;28;20450;-67
2023/02/09 11:58:01;;;;;;;12.13;6.60;;;;;;;;;;5092445;28;20074;-68
2023/02/09 12:00:28;;;;;;;17.87;9.37;;;;;;;;;;5091719;28;20050;-66
2023/02/09 12:03:06;;;;;;;14.60;7.03;;;;;;;;;;5108627;28;20081;-66
2023/02/09 12:05:32;;;;;;;13.60;6.47;;;;;;;;;;5058012;28;20363;-66
2023/02/09 12:08:21;;;;;;;11.37;6.30;;;;;;;;;;5091771;28;20402;-67
2023/02/09 12:10:56;;;;;;;11.53;7.07;;;;;;;;;;5093476;28;20084;-67
2023/02/09 12:13:21;;;;;;;13.53;7.00;;;;;;;;;;5093119;28;20427;-67
2023/02/09 12:15:53;;;;;;;12.47;6.80;;;;;;;;;;5076817;28;20031;-69
2023/02/09 12:18:21;;;;;;;14.30;6.70;;;;;;;;;;5110704;28;20119;-67
2023/02/09 12:20:49;;;;;;;10.40;6.30;;;;;;;;;;5094176;28;20062;-67
2023/02/09 12:23:18;;;;;;;13.77;5.83;;;;;;;;;;5093174;28;20032;-65
2023/02/09 12:26:03;;;;;;;9.70;5.77;;;;;;;;;;5059841;28;20042;-67
2023/02/09 12:28:29;;;;;;;11.80;6.53;;;;;;;;;;5060112;28;20074;-67
2023/02/09 12:30:58;;;;;;;13.00;6.57;;;;;;;;;;5059957;28;20059;-65
2023/02/09 12:33:24;;;;;;;10.63;6.13;;;;;;;;;;5110557;28;20039;-66
2023/02/09 12:36:00;;;;;;;10.33;6.50;;;;;;;;;;5059869;28;20031;-69
2023/02/09 12:38:41;;;;;;;15.43;6.90;;;;;;;;;;5107942;28;20032;-68
2023/02/09 12:41:08;;;;;;;14.88;6.25;;;;;;;;;;5113204;28;20054;-68
2023/02/09 12:43:34;;;;;;;10.97;5.83;;;;;;;;;;5112925;28;20070;-67
2023/02/09 12:46:12;;;;;;;11.23;6.67;;;;;;;;;;5129677;28;20424;-67
2023/02/09 12:48:46;;;;;;;9.13;5.70;;;;;;;;;;5108769;28;20128;-67
2023/02/09 12:51:31;;;;;;;10.83;5.87;;;;;;;;;;5094613;27;20030;-67
2023/02/09 12:53:56;;;;;;;9.67;5.97;;;;;;;;;;5112480;27;20122;-67
2023/02/09 12:56:27;;;;;;;9.43;4.50;;;;;;;;;;5098187;27;20127;-67
2023/02/09 12:58:54;;;;;;;8.65;4.60;;;;;;;;;;5088185;27;20027;-67
2023/02/09 13:01:20;;;;;;;9.50;5.10;;;;;;;;;;5099538;27;20046;-67
2023/02/09 13:03:58;;;;;;;5.53;3.63;;;;;;;;;;5098647;27;20028;-68
2023/02/09 13:06:42;;;;;;;8.13;4.30;;;;;;;;;;5113918;27;20446;-68
2023/02/09 13:09:11;;;;;;;5.87;3.97;;;;;;;;;;5114652;27;20039;-67
2023/02/09 13:11:50;;;;;;;7.70;3.90;;;;;;;;;;5096572;27;20038;-68
2023/02/09 13:14:17;;;;;;;6.53;2.80;;;;;;;;;;5111969;27;20027;-67
2023/02/09 13:16:42;;;;;;;2.37;1.70;;;;;;;;;;5099234;27;20047;-67
2023/02/09 13:19:16;;;;;;;2.13;1.20;;;;;;;;;;5081623;27;20346;-68
2023/02/09 13:21:45;;;;;;;3.20;1.60;;;;;;;;;;5133014;27;20035;-67
2023/02/09 13:24:16;;;;;;;4.10;2.30;;;;;;;;;;5081538;27;20341;-70
2023/02/09 13:26:47;;;;;;;4.57;2.63;;;;;;;;;;5082305;27;20059;-66
2023/02/09 13:29:16;;;;;;;4.60;2.77;;;;;;;;;;5098645;27;20046;-67
2023/02/09 13:31:43;;;;;;;7.67;3.37;;;;;;;;;;5104663;27;20142;-68
2023/02/09 13:34:24;;;;;;;5.77;2.97;;;;;;;;;;5098509;27;20469;-65
2023/02/09 13:36:58;;;;;;;7.03;2.97;;;;;;;;;;5131700;27;20039;-65
2023/02/09 13:39:25;;;;;;;3.03;1.90;;;;;;;;;;5113022;27;20329;-66
2023/02/09 13:41:52;;;;;;;3.00;2.03;;;;;;;;;;5098477;27;20038;-69
2023/02/09 13:44:22;;;;;;;3.27;1.80;;;;;;;;;;5098228;27;20030;-65
2023/02/09 13:46:58;;;;;;;2.97;2.00;;;;;;;;;;5096970;27;20028;-65
2023/02/09 13:49:25;;;;;;;2.80;2.17;;;;;;;;;;5098300;27;20109;-65
2023/02/09 13:52:10;;;;;;;3.17;2.00;;;;;;;;;;5115119;27;20080;-65
2023/02/09 13:54:37;;;;;;;3.37;2.10;;;;;;;;;;5113841;27;20084;-65
2023/02/09 13:57:02;;;;;;;4.20;1.70;;;;;;;;;;5098293;27;20411;-66
2023/02/09 13:59:28;;;;;;;2.47;1.90;;;;;;;;;;5114950;27;20035;-65
2023/02/09 14:01:54;;;;;;;2.73;1.87;;;;;;;;;;5096582;28;20078;-65
2023/02/09 14:04:22;;;;;;;3.07;1.90;;;;;;;;;;5132106;27;20117;-65
2023/02/09 14:06:57;;;;;;;10.83;3.97;;;;;;;;;;5115238;27;20128;-65
2023/02/09 14:09:25;;;;;;;5.50;2.50;;;;;;;;;;5093084;27;20122;-66
2023/02/09 14:11:53;;;;;;;4.93;2.90;;;;;;;;;;5096245;27;20038;-66
2023/02/09 14:14:23;;;;;;;5.20;3.57;;;;;;;;;;5098167;27;20031;-65
2023/02/09 14:17:07;;;;;;;10.10;4.97;;;;;;;;;;5097925;27;20461;-66
2023/02/09 14:19:33;;;;;;;7.83;3.63;;;;;;;;;;5130439;27;20108;-65
2023/02/09 14:21:59;;;;;;;12.37;6.20;;;;;;;;;;5099677;27;20035;-65
2023/02/09 14:24:26;;;;;;;8.90;4.63;;;;;;;;;;5093912;27;20096;-66
2023/02/09 14:27:10;;;;;;;8.43;4.23;;;;;;;;;;5116083;27;20062;-66
2023/02/09 14:29:36;;;;;;;12.17;4.50;;;;;;;;;;5098566;27;20031;-67
2023/02/09 14:32:19;;;;;;;7.50;4.77;;;;;;;;;;5116050;27;20031;-66
2023/02/09 14:34:44;;;;;;;7.43;4.03;;;;;;;;;;5082217;27;20034;-65
2023/02/09 14:37:10;;;;;;;8.90;5.27;;;;;;;;;;5082205;27;20452;-65
2023/02/09 14:39:55;;;;;;;10.83;5.00;;;;;;;;;;5081745;27;20062;-65
2023/02/09 14:42:21;;;;;;;11.07;4.80;;;;;;;;;;5098736;27;20130;-67